createdAt,value
2018-12-30T00:01:52.275Z,6.43
2018-12-30T00:04:33.052Z,6.10
2018-12-30T00:07:13.777Z,5.80
2018-12-30T00:09:54.397Z,5.47
2018-12-30T00:12:35.234Z,5.87
2018-12-30T00:15:16.345Z,5.43
2018-12-30T00:17:57.348Z,5.70
2018-12-30T00:20:38.829Z,5.47
2018-12-30T00:23:20.386Z,5.47
2018-12-30T00:26:01.301Z,5.40
2018-12-30T00:28:42.260Z,5.00
2018-12-30T00:31:22.811Z,4.17
2018-12-30T00:34:03.453Z,4.73
2018-12-30T00:36:44.185Z,3.90
2018-12-30T00:39:25.133Z,4.33
2018-12-30T00:42:05.684Z,4.07
2018-12-30T00:44:46.569Z,4.70
2018-12-30T00:47:27.020Z,4.03
2018-12-30T00:50:07.602Z,4.63
2018-12-30T00:52:48.660Z,5.10
2018-12-30T00:55:29.053Z,4.97
2018-12-30T00:58:09.945Z,5.23
2018-12-30T01:00:50.853Z,5.40
2018-12-30T01:03:31.318Z,7.33
2018-12-30T01:06:12.225Z,6.70
2018-12-30T01:08:52.733Z,8.53
2018-12-30T01:11:33.565Z,7.47
2018-12-30T01:14:13.921Z,7.47
2018-12-30T01:16:54.632Z,7.47
2018-12-30T01:19:23.358Z,7.83
2018-12-30T01:22:11.402Z,7.33
2018-12-30T01:24:59.236Z,7.60
2018-12-30T01:27:47.296Z,7.60
2018-12-30T01:30:35.069Z,8.77
2018-12-30T01:33:22.877Z,8.13
2018-12-30T01:36:10.710Z,8.67
2018-12-30T01:38:51.757Z,7.80
2018-12-30T01:41:32.879Z,7.80
2018-12-30T01:44:14.638Z,7.40
2018-12-30T01:46:55.408Z,7.80
2018-12-30T01:49:36.508Z,7.87
2018-12-30T01:52:17.159Z,7.80
2018-12-30T01:54:58.382Z,7.80
2018-12-30T01:57:39.464Z,6.90
2018-12-30T02:00:20.536Z,7.20
2018-12-30T02:03:01.277Z,6.83
2018-12-30T02:05:42.033Z,6.43
2018-12-30T02:08:22.609Z,8.00
2018-12-30T02:14:02.433Z,7.03
2018-12-30T02:16:43.387Z,7.50
2018-12-30T02:19:24.172Z,7.37
2018-12-30T02:22:05.049Z,7.53
2018-12-30T02:24:45.861Z,7.73
2018-12-30T02:30:38.938Z,7.30
2018-12-30T02:39:31.173Z,9.40
2018-12-30T02:42:11.356Z,9.30
2018-12-30T02:44:52.369Z,8.20
2018-12-30T02:47:33.646Z,7.93
2018-12-30T02:50:14.345Z,9.40
2018-12-30T02:52:55.401Z,8.30
2018-12-30T02:55:36.393Z,8.67
2018-12-30T02:58:17.434Z,8.53
2018-12-30T03:00:58.068Z,8.50
2018-12-30T03:03:38.915Z,8.50
2018-12-30T03:06:19.682Z,8.97
2018-12-30T03:08:59.945Z,8.63
2018-12-30T03:11:40.553Z,8.90
2018-12-30T03:14:21.398Z,9.13
2018-12-30T03:17:01.962Z,7.97
2018-12-30T03:19:42.393Z,8.70
2018-12-30T03:22:23.142Z,8.30
2018-12-30T03:25:03.753Z,8.33
2018-12-30T03:30:43.442Z,7.53
2018-12-30T03:33:24.090Z,8.07
2018-12-30T03:36:05.319Z,8.50
2018-12-30T03:38:46.302Z,8.93
2018-12-30T03:41:26.919Z,8.27
2018-12-30T03:44:07.993Z,8.80
2018-12-30T03:46:49.275Z,8.50
2018-12-30T03:49:29.656Z,8.90
2018-12-30T03:52:10.377Z,8.57
2018-12-30T03:54:51.010Z,8.60
2018-12-30T03:57:31.874Z,8.60
2018-12-30T04:00:12.336Z,8.37
2018-12-30T04:05:52.898Z,8.90
2018-12-30T04:08:33.358Z,8.63
2018-12-30T04:11:13.874Z,8.97
2018-12-30T04:13:54.406Z,8.20
2018-12-30T04:16:35.003Z,9.40
2018-12-30T04:22:29.047Z,9.73
2018-12-30T04:28:22.197Z,8.97
2018-12-30T04:31:02.867Z,9.70
2018-12-30T04:36:42.806Z,9.73
2018-12-30T04:39:23.220Z,9.50
2018-12-30T04:42:03.952Z,9.50
2018-12-30T04:44:44.483Z,9.27
2018-12-30T04:47:25.241Z,8.47
2018-12-30T04:50:06.151Z,8.70
2018-12-30T04:52:50.126Z,9.20
2018-12-30T04:58:43.585Z,8.37
2018-12-30T05:01:24.337Z,9.50
2018-12-30T05:04:05.117Z,9.50
2018-12-30T05:06:45.846Z,9.23
2018-12-30T05:09:26.539Z,8.80
2018-12-30T05:12:07.281Z,9.17
2018-12-30T05:14:47.866Z,9.10
2018-12-30T05:17:28.589Z,9.43
2018-12-30T05:20:09.403Z,8.63
2018-12-30T05:25:48.672Z,9.63
2018-12-30T05:28:29.442Z,8.93
2018-12-30T05:31:10.277Z,8.53
2018-12-30T05:33:51.286Z,8.60
2018-12-30T05:36:31.889Z,9.10
2018-12-30T05:39:12.937Z,8.33
2018-12-30T05:41:53.583Z,8.93
2018-12-30T05:44:34.397Z,8.50
2018-12-30T05:47:14.850Z,8.73
2018-12-30T05:52:54.307Z,9.20
2018-12-30T05:55:35.241Z,9.27
2018-12-30T05:58:16.094Z,8.87
2018-12-30T06:00:57.110Z,10.17
2018-12-30T06:03:38.061Z,8.53
2018-12-30T06:06:18.474Z,8.87
2018-12-30T06:08:59.074Z,10.80
2018-12-30T06:11:40.002Z,9.90
2018-12-30T06:20:17.797Z,9.83
2018-12-30T06:25:57.281Z,11.33
2018-12-30T06:28:38.075Z,11.17
2018-12-30T06:31:18.726Z,10.83
2018-12-30T06:33:59.860Z,10.73
2018-12-30T06:36:40.481Z,10.30
2018-12-30T06:39:20.947Z,10.50
2018-12-30T06:42:01.343Z,9.70
2018-12-30T06:44:41.786Z,10.30
2018-12-30T06:47:22.729Z,9.80
2018-12-30T06:50:03.618Z,9.87
2018-12-30T06:52:44.088Z,10.13
2018-12-30T06:55:24.382Z,9.90
2018-12-30T06:58:04.632Z,8.23
2018-12-30T07:00:45.583Z,8.90
2018-12-30T07:03:26.390Z,9.00
2018-12-30T07:06:07.242Z,9.50
2018-12-30T07:08:47.547Z,8.47
2018-12-30T07:11:28.538Z,9.23
2018-12-30T07:14:09.191Z,8.50
2018-12-30T07:16:50.077Z,7.57
2018-12-30T07:19:30.864Z,7.53
2018-12-30T07:25:23.821Z,7.60
2018-12-30T07:28:04.901Z,7.80
2018-12-30T07:30:45.915Z,7.47
2018-12-30T07:33:26.696Z,7.77
2018-12-30T07:36:07.350Z,8.03
2018-12-30T07:38:47.973Z,7.57
2018-12-30T07:41:28.785Z,7.73
2018-12-30T07:44:09.816Z,6.73
2018-12-30T07:46:50.803Z,7.47
2018-12-30T07:49:31.451Z,8.33
2018-12-30T07:55:25.357Z,6.33
2018-12-30T08:01:03.938Z,7.50
2018-12-30T08:03:44.402Z,7.10
2018-12-30T08:06:25.306Z,6.90
2018-12-30T08:09:06.155Z,7.33
2018-12-30T08:11:46.718Z,6.67
2018-12-30T08:14:27.318Z,7.07
2018-12-30T08:17:07.979Z,7.17
2018-12-30T08:19:48.743Z,7.33
2018-12-30T08:22:29.551Z,8.00
2018-12-30T08:28:09.105Z,6.67
2018-12-30T08:30:49.921Z,6.50
2018-12-30T08:33:30.843Z,6.57
2018-12-30T08:39:25.030Z,7.00
2018-12-30T08:45:18.636Z,7.10
2018-12-30T08:47:59.465Z,7.03
2018-12-30T08:50:40.151Z,7.43
2018-12-30T08:53:21.208Z,7.13
2018-12-30T08:56:01.873Z,7.77
2018-12-30T09:01:41.540Z,6.03
2018-12-30T09:04:22.306Z,6.90
2018-12-30T09:07:03.063Z,6.83
2018-12-30T09:09:44.363Z,6.60
2018-12-30T09:12:25.422Z,6.47
2018-12-30T09:15:06.381Z,6.17
2018-12-30T09:17:47.008Z,6.00
2018-12-30T09:20:27.612Z,7.40
2018-12-30T09:26:21.010Z,5.20
2018-12-30T09:29:01.550Z,5.50
2018-12-30T09:31:42.333Z,6.13
2018-12-30T09:34:23.078Z,5.97
2018-12-30T09:37:03.911Z,5.50
2018-12-30T09:39:44.770Z,6.23
2018-12-30T09:42:25.758Z,5.30
2018-12-30T09:45:06.645Z,6.13
2018-12-30T09:51:00.114Z,5.20
2018-12-30T09:53:45.079Z,5.33
2018-12-30T09:56:23.839Z,6.27
2018-12-30T10:02:16.955Z,5.73
2018-12-30T10:04:57.724Z,5.60
2018-12-30T10:07:38.233Z,5.73
2018-12-30T10:10:19.202Z,5.80
2018-12-30T10:13:00.142Z,5.87
2018-12-30T10:15:41.160Z,4.90
2018-12-30T10:21:34.018Z,5.70
2018-12-30T10:24:15.013Z,5.50
2018-12-30T10:26:56.298Z,5.63
2018-12-30T10:32:49.877Z,5.50
2018-12-30T10:35:30.384Z,5.40
2018-12-30T10:38:11.412Z,5.93
2018-12-30T10:40:52.208Z,5.50
2018-12-30T10:43:32.610Z,5.73
2018-12-30T10:55:08.018Z,5.73
2018-12-30T10:57:48.919Z,5.77
2018-12-30T11:00:29.670Z,6.23
2018-12-30T11:03:10.350Z,5.93
2018-12-30T11:05:51.014Z,5.77
2018-12-30T11:08:31.920Z,5.47
2018-12-30T11:11:12.769Z,5.13
2018-12-30T11:13:54.010Z,5.77
2018-12-30T11:16:34.718Z,5.27
2018-12-30T11:19:16.441Z,5.23
2018-12-30T11:21:57.635Z,5.80
2018-12-30T11:24:38.159Z,4.93
2018-12-30T11:27:19.722Z,4.63
2018-12-30T11:30:00.673Z,5.23
2018-12-30T11:32:41.606Z,5.67
2018-12-30T11:35:22.734Z,5.73
2018-12-30T11:38:03.382Z,5.23
2018-12-30T11:40:43.961Z,5.43
2018-12-30T11:43:24.670Z,5.17
2018-12-30T11:46:05.874Z,5.80
2018-12-30T11:48:46.513Z,5.13
2018-12-30T11:51:27.061Z,5.70
2018-12-30T11:54:08.002Z,6.07
2018-12-30T11:56:49.087Z,5.50
2018-12-30T12:02:41.434Z,6.10
2018-12-30T12:05:22.026Z,5.03
2018-12-30T12:08:03.177Z,5.37
2018-12-30T12:10:43.682Z,5.40
2018-12-30T12:13:24.314Z,5.40
2018-12-30T12:16:04.817Z,6.07
2018-12-30T12:21:44.486Z,5.23
2018-12-30T12:24:25.113Z,5.53
2018-12-30T12:27:05.591Z,6.10
2018-12-30T12:32:58.631Z,5.47
2018-12-30T12:35:39.666Z,5.77
2018-12-30T12:38:20.778Z,5.77
2018-12-30T12:41:01.099Z,6.67
2018-12-30T12:43:41.686Z,6.07
2018-12-30T12:46:22.625Z,5.90
2018-12-30T12:49:03.562Z,5.97
2018-12-30T12:54:42.819Z,5.27
2018-12-30T12:57:23.331Z,5.70
2018-12-30T13:00:04.038Z,6.23
2018-12-30T13:02:44.620Z,6.17
2018-12-30T13:05:25.644Z,5.67
2018-12-30T13:08:07.151Z,6.40
2018-12-30T13:10:47.555Z,5.57
2018-12-30T13:13:28.152Z,7.67
2018-12-30T13:16:09.241Z,7.87
2018-12-30T13:18:50.290Z,8.47
2018-12-30T13:21:31.125Z,8.40
2018-12-30T13:24:11.946Z,8.50
2018-12-30T13:26:52.990Z,8.70
2018-12-30T13:29:33.743Z,8.43
2018-12-30T13:32:14.530Z,8.80
2018-12-30T13:34:57.990Z,8.70
2018-12-30T13:37:38.950Z,8.97
2018-12-30T13:40:20.295Z,8.90
2018-12-30T13:43:01.450Z,8.90
2018-12-30T13:45:42.237Z,8.80
2018-12-30T13:48:23.218Z,9.70
2018-12-30T13:51:03.953Z,8.87
2018-12-30T13:53:44.268Z,8.80
2018-12-30T13:56:25.166Z,9.00
2018-12-30T13:59:05.806Z,9.50
2018-12-30T14:01:46.558Z,9.53
2018-12-30T14:04:27.042Z,9.47
2018-12-30T14:07:07.335Z,9.27
2018-12-30T14:09:48.126Z,9.43
2018-12-30T14:12:28.895Z,10.53
2018-12-30T14:15:09.640Z,25.30
2018-12-30T14:17:50.274Z,10.23
2018-12-30T14:20:31.402Z,9.30
2018-12-30T14:23:12.139Z,8.77
2018-12-30T14:25:53.127Z,9.90
2018-12-30T14:28:34.385Z,9.13
2018-12-30T14:31:14.656Z,9.33
2018-12-30T14:33:55.404Z,9.10
2018-12-30T14:36:36.084Z,9.00
2018-12-30T14:39:16.393Z,9.50
2018-12-30T14:41:57.542Z,9.77
2018-12-30T14:44:37.940Z,10.03
2018-12-30T14:47:18.642Z,9.97
2018-12-30T14:49:59.627Z,10.23
2018-12-30T14:52:40.297Z,9.83
2018-12-30T14:55:21.034Z,9.57
2018-12-30T14:58:01.675Z,9.20
2018-12-30T15:00:42.659Z,9.90
2018-12-30T15:03:22.839Z,9.20
2018-12-30T15:06:03.525Z,9.10
2018-12-30T15:08:44.146Z,10.47
2018-12-30T15:11:24.701Z,10.30
2018-12-30T15:14:05.669Z,9.97
2018-12-30T15:16:46.565Z,10.40
2018-12-30T15:19:27.578Z,10.80
2018-12-30T15:22:08.386Z,10.93
2018-12-30T15:24:49.310Z,11.07
2018-12-30T15:27:30.462Z,10.50
2018-12-30T15:30:10.802Z,11.10
2018-12-30T15:32:51.494Z,36.20
2018-12-30T15:35:32.196Z,11.47
2018-12-30T15:38:13.057Z,10.43
2018-12-30T15:40:53.615Z,9.50
2018-12-30T15:43:34.149Z,10.43
2018-12-30T15:46:15.026Z,10.80
2018-12-30T15:48:55.782Z,10.53
2018-12-30T15:51:36.410Z,10.93
2018-12-30T15:54:17.258Z,10.37
2018-12-30T15:56:58.298Z,11.33
2018-12-30T15:59:39.059Z,10.63
2018-12-30T16:02:19.749Z,11.47
2018-12-30T16:05:00.002Z,9.80
2018-12-30T16:07:41.010Z,12.50
2018-12-30T16:10:21.977Z,10.17
2018-12-30T16:13:02.782Z,10.27
2018-12-30T16:15:43.101Z,10.90
2018-12-30T16:18:23.781Z,10.17
2018-12-30T16:21:04.529Z,9.67
2018-12-30T16:23:45.492Z,10.70
2018-12-30T16:26:26.182Z,10.57
2018-12-30T16:29:06.562Z,10.53
2018-12-30T16:31:47.481Z,10.27
2018-12-30T16:34:28.616Z,9.87
2018-12-30T16:37:09.239Z,10.43
2018-12-30T16:39:50.319Z,10.00
2018-12-30T16:42:30.726Z,9.60
2018-12-30T16:45:11.749Z,10.00
2018-12-30T16:47:52.754Z,10.43
2018-12-30T16:50:33.398Z,11.67
2018-12-30T16:53:13.942Z,10.20
2018-12-30T16:55:54.788Z,8.43
2018-12-30T16:58:35.397Z,9.50
2018-12-30T17:01:16.107Z,9.50
2018-12-30T17:03:57.081Z,9.57
2018-12-30T17:06:37.934Z,9.63
2018-12-30T17:09:18.374Z,9.07
2018-12-30T17:11:59.301Z,9.90
2018-12-30T17:14:39.971Z,8.97
2018-12-30T17:17:20.706Z,9.60
2018-12-30T17:20:01.454Z,9.23
2018-12-30T17:22:42.174Z,9.70
2018-12-30T17:25:22.698Z,11.17
2018-12-30T17:28:02.917Z,9.87
2018-12-30T17:33:56.017Z,9.50
2018-12-30T17:36:36.841Z,10.07
2018-12-30T17:39:17.730Z,9.37
2018-12-30T17:41:58.634Z,10.17
2018-12-30T17:44:39.172Z,9.20
2018-12-30T17:47:19.769Z,9.77
2018-12-30T17:50:02.346Z,10.30
2018-12-30T17:52:42.934Z,10.20
2018-12-30T17:55:23.971Z,10.60
2018-12-30T17:58:04.973Z,8.93
2018-12-30T18:00:45.889Z,10.27
2018-12-30T18:03:26.745Z,9.30
2018-12-30T18:06:07.602Z,10.10
2018-12-30T18:08:48.393Z,12.00
2018-12-30T18:11:29.342Z,10.10
2018-12-30T18:14:09.818Z,11.10
2018-12-30T18:16:50.879Z,10.87
2018-12-30T18:19:31.387Z,11.67
2018-12-30T18:22:12.122Z,10.80
2018-12-30T18:24:52.854Z,11.27
2018-12-30T18:27:33.483Z,11.77
2018-12-30T18:30:14.258Z,10.43
2018-12-30T18:32:55.251Z,9.77
2018-12-30T18:35:35.505Z,10.87
2018-12-30T18:38:16.329Z,10.30
2018-12-30T18:40:57.121Z,9.73
2018-12-30T18:43:37.354Z,11.27
2018-12-30T18:46:18.138Z,11.13
2018-12-30T18:48:58.773Z,11.03
2018-12-30T18:51:39.197Z,11.90
2018-12-30T18:54:19.720Z,11.67
2018-12-30T18:56:59.862Z,13.33
2018-12-30T18:59:40.592Z,11.17
2018-12-30T19:02:21.183Z,12.40
2018-12-30T19:05:02.003Z,11.60
2018-12-30T19:07:43.018Z,12.27
2018-12-30T19:10:23.809Z,12.33
2018-12-30T19:13:04.552Z,12.17
2018-12-30T19:15:45.515Z,12.57
2018-12-30T19:18:26.468Z,12.67
2018-12-30T19:21:07.403Z,13.23
2018-12-30T19:23:47.993Z,11.30
2018-12-30T19:26:29.068Z,11.00
2018-12-30T19:29:10.127Z,13.67
2018-12-30T19:31:50.929Z,12.13
2018-12-30T19:34:31.863Z,13.00
2018-12-30T19:37:12.531Z,11.73
2018-12-30T19:39:53.302Z,12.13
2018-12-30T19:42:33.993Z,12.37
2018-12-30T19:45:14.638Z,12.20
2018-12-30T19:47:55.319Z,11.23
2018-12-30T19:50:35.894Z,11.97
2018-12-30T19:53:16.775Z,12.63
2018-12-30T19:58:55.926Z,10.53
2018-12-30T20:01:36.588Z,10.80
2018-12-30T20:04:17.289Z,10.77
2018-12-30T20:06:57.866Z,11.20
2018-12-30T20:09:38.967Z,10.80
2018-12-30T20:12:19.922Z,10.43
2018-12-30T20:15:00.910Z,10.97
2018-12-30T20:17:41.937Z,11.50
2018-12-30T20:29:03.890Z,11.07
2018-12-30T20:31:32.317Z,11.17
2018-12-30T20:34:00.770Z,12.07
2018-12-30T20:36:29.187Z,14.23
2018-12-30T20:38:58.549Z,11.70
2018-12-30T20:41:27.013Z,12.53
2018-12-30T20:43:55.428Z,11.37
2018-12-30T20:46:23.903Z,10.50
2018-12-30T20:48:51.990Z,12.03
2018-12-30T20:51:20.422Z,11.90
2018-12-30T20:53:48.848Z,12.23
2018-12-30T20:56:17.203Z,11.60
2018-12-30T20:58:45.298Z,11.73
2018-12-30T21:01:13.742Z,11.90
2018-12-30T21:03:42.162Z,11.33
2018-12-30T21:06:10.600Z,11.93
2018-12-30T21:08:39.009Z,12.60
2018-12-30T21:11:07.440Z,11.50
2018-12-30T21:13:35.873Z,11.47
2018-12-30T21:16:04.292Z,11.77
2018-12-30T21:18:32.395Z,11.30
2018-12-30T21:21:00.830Z,11.03
2018-12-30T21:23:29.258Z,11.63
2018-12-30T21:25:57.706Z,11.83
2018-12-30T21:28:25.797Z,11.17
2018-12-30T21:30:54.241Z,10.60
2018-12-30T21:33:22.667Z,11.27
2018-12-30T21:35:51.098Z,11.13
2018-12-30T21:38:19.528Z,10.97
2018-12-30T21:40:47.969Z,11.20
2018-12-30T21:43:16.393Z,11.20
2018-12-30T21:45:44.826Z,12.17
2018-12-30T21:48:12.939Z,11.63
2018-12-30T21:50:41.049Z,12.20
2018-12-30T21:53:09.470Z,12.37
2018-12-30T21:55:37.565Z,12.03
2018-12-30T21:58:05.918Z,12.80
2018-12-30T22:00:34.348Z,12.27
2018-12-30T22:03:03.039Z,12.80
2018-12-30T22:05:31.472Z,12.53
2018-12-30T22:07:59.978Z,12.50
2018-12-30T22:10:28.410Z,12.00
2018-12-30T22:12:56.829Z,12.70
2018-12-30T22:15:24.943Z,12.63
2018-12-30T22:17:53.037Z,12.43
2018-12-30T22:20:21.134Z,12.03
2018-12-30T22:22:49.243Z,11.80
2018-12-30T22:25:17.416Z,12.50
2018-12-30T22:27:45.771Z,12.43
2018-12-30T22:30:14.199Z,12.80
2018-12-30T22:32:42.637Z,12.43
2018-12-30T22:35:11.060Z,12.63
2018-12-30T22:37:39.494Z,11.87
2018-12-30T22:40:08.492Z,12.50
2018-12-30T22:42:36.925Z,15.73
2018-12-30T22:45:05.287Z,13.00
2018-12-30T22:47:33.385Z,12.57
2018-12-30T22:50:01.473Z,12.87
2018-12-30T22:52:29.576Z,12.43
2018-12-30T22:54:57.658Z,12.27
2018-12-30T22:57:25.762Z,13.07
2018-12-30T22:59:54.185Z,12.53
2018-12-30T23:02:22.623Z,11.67
2018-12-30T23:04:51.322Z,11.57
2018-12-30T23:07:19.754Z,12.53
2018-12-30T23:09:48.183Z,11.80
2018-12-30T23:12:16.609Z,11.50
2018-12-30T23:14:44.710Z,12.03
2018-12-30T23:17:12.806Z,11.47
2018-12-30T23:19:40.896Z,12.27
2018-12-30T23:22:08.995Z,11.37
2018-12-30T23:24:37.418Z,11.93
2018-12-30T23:27:05.522Z,11.70
2018-12-30T23:29:33.953Z,11.83
2018-12-30T23:32:02.381Z,11.40
2018-12-30T23:34:30.718Z,10.90
2018-12-30T23:36:59.157Z,12.10
2018-12-30T23:39:27.749Z,12.30
2018-12-30T23:41:56.180Z,10.17
2018-12-30T23:44:24.273Z,11.13
2018-12-30T23:46:52.722Z,11.77
2018-12-30T23:49:21.157Z,11.93
2018-12-30T23:51:49.614Z,11.37
2018-12-30T23:54:17.739Z,11.77
2018-12-30T23:56:45.829Z,11.53
2018-12-30T23:59:14.277Z,10.37
